Time;durP1;ratioP1;P1;durP2;ratioP2;P2;SDS_P1;SDS_P2;PMS_P1;PMS_P2;Temp;Humidity;BMP_temperature;BMP_pressure;BME280_temperature;BME280_humidity;BME280_pressure;Samples;Min_cycle;Max_cycle;Signal;HPM_P1;HPM_P2
2022/10/21 00:02:14;;;;;;;17.98;4.40;;;;;;;;;;6334972;22;20521;-88
2022/10/21 00:04:40;;;;;;;19.55;4.13;;;;;;;;;;6334149;22;19998;-88
2022/10/21 00:07:06;;;;;;;12.57;4.32;;;;;;;;;;6333153;22;20014;-88
2022/10/21 00:09:32;;;;;;;16.83;4.03;;;;;;;;;;6306472;22;20006;-88
2022/10/21 00:11:58;;;;;;;13.05;3.70;;;;;;;;;;6306657;22;20568;-87
2022/10/21 00:14:24;;;;;;;15.70;4.35;;;;;;;;;;6306722;22;20003;-89
2022/10/21 00:16:50;;;;;;;15.57;4.20;;;;;;;;;;6306893;22;20067;-88
2022/10/21 00:19:16;;;;;;;18.90;4.15;;;;;;;;;;6334868;22;20003;-87
2022/10/21 00:21:42;;;;;;;15.50;4.18;;;;;;;;;;6333807;22;19998;-89
2022/10/21 00:24:09;;;;;;;20.60;4.55;;;;;;;;;;6333340;22;20209;-89
2022/10/21 00:26:35;;;;;;;16.77;4.18;;;;;;;;;;6306069;22;20003;-89
2022/10/21 00:29:01;;;;;;;13.82;3.88;;;;;;;;;;6306205;22;20059;-88
2022/10/21 00:31:27;;;;;;;17.50;4.47;;;;;;;;;;6333975;22;20022;-88
2022/10/21 00:33:53;;;;;;;20.00;3.88;;;;;;;;;;6343835;22;20434;-87
2022/10/21 00:36:19;;;;;;;15.48;4.50;;;;;;;;;;6351150;22;20009;-88
2022/10/21 00:38:47;;;;;;;14.40;3.55;;;;;;;;;;6351649;22;20011;-88
2022/10/21 00:41:13;;;;;;;10.97;3.60;;;;;;;;;;6346631;22;20002;-87
2022/10/21 00:43:52;;;;;;;19.55;4.13;;;;;;;;;;6334154;22;19999;-89
2022/10/21 00:46:18;;;;;;;17.02;3.80;;;;;;;;;;6334989;22;19995;-91
2022/10/21 00:48:51;;;;;;;21.63;4.60;;;;;;;;;;6334018;22;20053;-88
2022/10/21 00:51:18;;;;;;;12.27;3.47;;;;;;;;;;6334497;22;20327;-87
2022/10/21 00:53:45;;;;;;;30.83;3.83;;;;;;;;;;6334002;22;20002;-88
2022/10/21 00:56:13;;;;;;;11.43;3.53;;;;;;;;;;6333913;22;19999;-89
2022/10/21 00:58:40;;;;;;;20.88;4.32;;;;;;;;;;6333554;22;20003;-88
2022/10/21 01:01:07;;;;;;;18.90;4.68;;;;;;;;;;6333666;22;19999;-89
2022/10/21 01:03:34;;;;;;;11.75;3.60;;;;;;;;;;6333087;22;20085;-87
2022/10/21 01:06:01;;;;;;;15.60;3.78;;;;;;;;;;6333452;22;20074;-89
2022/10/21 01:08:28;;;;;;;16.75;3.90;;;;;;;;;;6333802;22;20339;-88
2022/10/21 01:10:54;;;;;;;17.50;4.07;;;;;;;;;;6305935;22;19999;-90
2022/10/21 01:13:23;;;;;;;20.90;3.70;;;;;;;;;;6306991;22;20434;-88
2022/10/21 01:15:58;;;;;;;14.60;3.90;;;;;;;;;;6306975;22;20013;-88
2022/10/21 01:18:30;;;;;;;18.10;4.07;;;;;;;;;;6305884;22;20006;-85
2022/10/21 01:21:11;;;;;;;18.73;4.15;;;;;;;;;;6333246;22;20006;-89
2022/10/21 01:23:56;;;;;;;16.65;3.50;;;;;;;;;;6332721;22;20446;-85
2022/10/21 01:26:28;;;;;;;21.75;3.50;;;;;;;;;;6333811;22;19999;-85
2022/10/21 01:28:57;;;;;;;18.98;3.97;;;;;;;;;;6332554;22;20033;-88
2022/10/21 01:31:36;;;;;;;19.60;3.67;;;;;;;;;;6304872;22;20049;-87
2022/10/21 01:34:05;;;;;;;15.45;4.05;;;;;;;;;;6304929;22;20094;-87
2022/10/21 01:36:36;;;;;;;15.25;3.28;;;;;;;;;;6332983;22;20002;-86
2022/10/21 01:39:22;;;;;;;17.70;4.18;;;;;;;;;;6337120;22;20443;-88
2022/10/21 01:42:07;;;;;;;12.90;2.97;;;;;;;;;;6310311;22;19999;-86
2022/10/21 01:44:42;;;;;;;16.63;3.53;;;;;;;;;;6307506;22;20010;-87
2022/10/21 01:47:16;;;;;;;18.10;3.92;;;;;;;;;;6329044;22;19999;-88
2022/10/21 01:49:46;;;;;;;13.93;3.45;;;;;;;;;;6332039;22;20022;-86
2022/10/21 01:52:13;;;;;;;16.70;3.42;;;;;;;;;;6332586;22;20083;-86
2022/10/21 01:54:44;;;;;;;14.23;3.60;;;;;;;;;;6304728;22;20006;-88
2022/10/21 01:57:11;;;;;;;18.80;3.58;;;;;;;;;;6332067;22;20011;-86
2022/10/21 01:59:38;;;;;;;15.27;3.30;;;;;;;;;;6331959;22;19995;-87
2022/10/21 02:02:06;;;;;;;12.23;3.08;;;;;;;;;;6332207;22;20553;-86
2022/10/21 02:04:33;;;;;;;16.25;3.60;;;;;;;;;;6332478;22;19999;-88
2022/10/21 02:06:59;;;;;;;14.38;3.17;;;;;;;;;;6304442;22;20342;-86
2022/10/21 02:09:26;;;;;;;22.25;3.40;;;;;;;;;;6332115;22;20006;-89
2022/10/21 02:11:53;;;;;;;12.02;3.53;;;;;;;;;;6305912;22;20068;-86
2022/10/21 02:14:23;;;;;;;15.45;3.50;;;;;;;;;;6305743;22;20003;-86
2022/10/21 02:16:49;;;;;;;14.93;4.15;;;;;;;;;;6305105;22;20007;-86
2022/10/21 02:19:16;;;;;;;21.00;4.47;;;;;;;;;;6332651;22;20053;-87
2022/10/21 02:21:43;;;;;;;16.97;3.10;;;;;;;;;;6332402;22;19995;-85
2022/10/21 02:24:12;;;;;;;15.02;2.83;;;;;;;;;;6331998;22;20092;-86
2022/10/21 02:26:38;;;;;;;17.42;3.22;;;;;;;;;;6304331;22;20316;-86
2022/10/21 02:29:04;;;;;;;13.38;3.58;;;;;;;;;;6331436;22;20010;-87
2022/10/21 02:31:39;;;;;;;16.10;3.40;;;;;;;;;;6334045;22;19995;-85
2022/10/21 02:34:05;;;;;;;16.27;3.40;;;;;;;;;;6306543;22;20007;-86
2022/10/21 02:36:49;;;;;;;18.08;3.38;;;;;;;;;;6334260;22;20312;-86
2022/10/21 02:39:23;;;;;;;17.02;3.38;;;;;;;;;;6333842;22;20015;-85
2022/10/21 02:41:50;;;;;;;28.05;3.85;;;;;;;;;;6333626;22;20003;-85
2022/10/21 02:44:16;;;;;;;16.50;4.10;;;;;;;;;;6333808;22;20009;-86
2022/10/21 02:46:43;;;;;;;26.25;3.42;;;;;;;;;;6333795;22;20023;-84
2022/10/21 02:49:10;;;;;;;17.70;3.50;;;;;;;;;;6305852;22;20404;-86
2022/10/21 02:51:36;;;;;;;17.15;3.92;;;;;;;;;;6333952;22;19999;-87
2022/10/21 02:54:02;;;;;;;17.77;3.72;;;;;;;;;;6333687;22;20026;-87
2022/10/21 02:56:28;;;;;;;12.85;3.00;;;;;;;;;;6333557;22;20128;-86
2022/10/21 02:58:54;;;;;;;18.67;3.65;;;;;;;;;;6334379;22;19998;-85
2022/10/21 03:01:20;;;;;;;17.63;3.45;;;;;;;;;;6334380;22;20022;-87
2022/10/21 03:03:46;;;;;;;26.10;3.60;;;;;;;;;;6333576;22;20466;-88
2022/10/21 03:06:12;;;;;;;17.20;3.30;;;;;;;;;;6333760;22;20018;-87
2022/10/21 03:08:38;;;;;;;17.15;3.63;;;;;;;;;;6333540;22;20100;-88
2022/10/21 03:11:05;;;;;;;11.55;2.80;;;;;;;;;;6333638;22;20043;-88
2022/10/21 03:13:31;;;;;;;16.70;3.00;;;;;;;;;;6333873;22;19998;-89
2022/10/21 03:15:57;;;;;;;14.55;3.00;;;;;;;;;;6333502;22;19999;-87
2022/10/21 03:18:23;;;;;;;24.27;3.45;;;;;;;;;;6334346;22;20003;-85
2022/10/21 03:20:49;;;;;;;16.10;3.15;;;;;;;;;;6305800;22;20082;-86
2022/10/21 03:23:19;;;;;;;15.65;2.72;;;;;;;;;;6305905;22;20026;-86
2022/10/21 03:25:45;;;;;;;10.13;3.20;;;;;;;;;;6336115;22;20014;-86
2022/10/21 03:28:11;;;;;;;13.38;2.92;;;;;;;;;;6337060;22;20003;-86
2022/10/21 03:30:37;;;;;;;13.63;3.83;;;;;;;;;;6309937;22;20480;-87
2022/10/21 03:33:03;;;;;;;18.73;3.17;;;;;;;;;;6336051;22;20069;-86
2022/10/21 03:35:29;;;;;;;29.75;3.80;;;;;;;;;;6333477;22;20032;-85
2022/10/21 03:37:55;;;;;;;12.32;2.70;;;;;;;;;;6333008;22;20376;-87
2022/10/21 03:40:28;;;;;;;21.70;3.15;;;;;;;;;;6334374;22;19999;-87
2022/10/21 03:42:55;;;;;;;20.17;3.30;;;;;;;;;;6334179;22;20051;-86
2022/10/21 03:45:21;;;;;;;16.27;2.88;;;;;;;;;;6336162;22;20003;-85
2022/10/21 03:47:47;;;;;;;16.00;2.70;;;;;;;;;;6333487;22;20009;-85
2022/10/21 03:50:13;;;;;;;22.65;2.67;;;;;;;;;;6333133;22;20002;-86
2022/10/21 03:52:39;;;;;;;21.33;2.90;;;;;;;;;;6333201;22;20003;-89
2022/10/21 03:55:05;;;;;;;15.48;2.50;;;;;;;;;;6333670;22;20002;-88
2022/10/21 03:57:31;;;;;;;21.95;3.22;;;;;;;;;;6305513;22;20011;-89
2022/10/21 03:59:57;;;;;;;15.20;3.25;;;;;;;;;;6332919;22;19999;-87
2022/10/21 04:02:23;;;;;;;18.38;2.85;;;;;;;;;;6333795;22;19999;-85
2022/10/21 04:04:49;;;;;;;11.48;3.35;;;;;;;;;;6305533;22;20003;-87
2022/10/21 04:07:15;;;;;;;17.60;3.10;;;;;;;;;;6332942;22;20372;-87
2022/10/21 04:09:41;;;;;;;18.48;2.88;;;;;;;;;;6325283;22;20005;-86
2022/10/21 04:12:07;;;;;;;10.38;2.47;;;;;;;;;;6331405;22;20014;-88
2022/10/21 04:14:33;;;;;;;10.82;2.60;;;;;;;;;;6331759;22;20333;-86
2022/10/21 04:16:59;;;;;;;19.48;3.50;;;;;;;;;;6328371;22;20083;-87
2022/10/21 04:19:25;;;;;;;13.88;2.58;;;;;;;;;;6332274;22;20081;-86
2022/10/21 04:21:51;;;;;;;15.15;2.90;;;;;;;;;;6339397;22;20386;-87
2022/10/21 04:24:17;;;;;;;10.77;2.33;;;;;;;;;;6340740;22;20018;-87
2022/10/21 04:26:43;;;;;;;14.52;2.63;;;;;;;;;;6334373;22;19999;-86
2022/10/21 04:29:09;;;;;;;17.25;3.42;;;;;;;;;;6333589;22;19995;-87
2022/10/21 04:31:35;;;;;;;15.20;2.80;;;;;;;;;;6328781;22;20009;-86
2022/10/21 04:34:01;;;;;;;10.45;2.38;;;;;;;;;;6301524;22;19999;-87
2022/10/21 04:36:28;;;;;;;13.75;2.80;;;;;;;;;;6332989;22;20504;-87
2022/10/21 04:38:54;;;;;;;18.60;2.90;;;;;;;;;;6334031;22;20011;-86
2022/10/21 04:41:20;;;;;;;20.35;3.38;;;;;;;;;;6333298;22;20022;-88
2022/10/21 04:43:46;;;;;;;18.42;2.83;;;;;;;;;;6333086;22;20010;-88
2022/10/21 04:46:14;;;;;;;21.15;3.38;;;;;;;;;;6332882;22;20426;-88
2022/10/21 04:48:40;;;;;;;25.98;2.42;;;;;;;;;;6332336;22;20475;-87
2022/10/21 04:51:06;;;;;;;12.23;2.22;;;;;;;;;;6305655;22;20403;-85
2022/10/21 04:53:32;;;;;;;22.30;3.00;;;;;;;;;;6332477;22;19999;-86
2022/10/21 04:55:58;;;;;;;15.13;3.30;;;;;;;;;;6305347;22;20007;-85
2022/10/21 04:58:24;;;;;;;12.50;2.25;;;;;;;;;;6333728;22;20451;-86
2022/10/21 05:00:50;;;;;;;14.57;2.10;;;;;;;;;;6333049;22;20078;-85
2022/10/21 05:03:17;;;;;;;10.80;2.17;;;;;;;;;;6332925;22;20025;-87
2022/10/21 05:05:43;;;;;;;14.18;2.45;;;;;;;;;;6332711;22;20078;-86
2022/10/21 05:08:09;;;;;;;13.57;2.38;;;;;;;;;;6305205;22;20038;-86
2022/10/21 05:10:35;;;;;;;14.90;2.30;;;;;;;;;;6303150;22;20007;-87
2022/10/21 05:13:01;;;;;;;19.98;2.50;;;;;;;;;;6305241;22;20003;-87
2022/10/21 05:15:27;;;;;;;19.92;2.45;;;;;;;;;;6306052;22;20079;-88
2022/10/21 05:17:53;;;;;;;13.75;2.30;;;;;;;;;;6333998;22;20007;-87
2022/10/21 05:20:19;;;;;;;13.18;2.58;;;;;;;;;;6333618;22;20014;-88
2022/10/21 05:22:45;;;;;;;15.10;2.60;;;;;;;;;;6333362;22;20439;-87
2022/10/21 05:25:11;;;;;;;12.10;2.42;;;;;;;;;;6304013;22;20019;-86
2022/10/21 05:27:37;;;;;;;14.88;2.42;;;;;;;;;;6333001;22;20005;-87
2022/10/21 05:30:04;;;;;;;20.95;2.30;;;;;;;;;;6332905;22;20015;-86
2022/10/21 05:32:30;;;;;;;17.85;2.72;;;;;;;;;;6304658;22;20002;-86
2022/10/21 05:34:56;;;;;;;22.77;2.83;;;;;;;;;;6334496;22;19999;-86
2022/10/21 05:37:22;;;;;;;15.13;2.65;;;;;;;;;;6332977;22;20017;-86
2022/10/21 05:39:48;;;;;;;14.43;2.30;;;;;;;;;;6304357;22;20252;-87
2022/10/21 05:42:14;;;;;;;17.98;2.70;;;;;;;;;;6332963;22;19999;-87
2022/10/21 05:44:40;;;;;;;15.15;2.65;;;;;;;;;;6333013;22;20005;-87
2022/10/21 05:47:06;;;;;;;15.50;2.53;;;;;;;;;;6333238;22;20066;-87
2022/10/21 05:49:32;;;;;;;17.27;2.53;;;;;;;;;;6333805;22;20022;-88
2022/10/21 05:51:58;;;;;;;21.23;2.97;;;;;;;;;;6306200;22;20450;-85
2022/10/21 05:54:24;;;;;;;21.15;2.58;;;;;;;;;;6306095;22;20133;-88
2022/10/21 05:56:50;;;;;;;24.63;3.72;;;;;;;;;;6305809;22;20065;-87
2022/10/21 05:59:16;;;;;;;22.00;3.30;;;;;;;;;;6333439;22;20078;-88
2022/10/21 06:01:42;;;;;;;18.58;2.97;;;;;;;;;;6333305;22;20003;-90
2022/10/21 06:04:08;;;;;;;16.17;3.38;;;;;;;;;;6333554;22;20002;-88
2022/10/21 06:06:34;;;;;;;21.73;2.60;;;;;;;;;;6335247;22;19999;-88
2022/10/21 06:09:00;;;;;;;21.33;2.72;;;;;;;;;;6306697;22;20059;-87
2022/10/21 06:11:26;;;;;;;17.90;2.45;;;;;;;;;;6335364;22;20388;-88
2022/10/21 06:13:52;;;;;;;17.10;2.60;;;;;;;;;;6334963;22;20052;-88
2022/10/21 06:16:18;;;;;;;27.30;3.45;;;;;;;;;;6336800;22;20001;-88
2022/10/21 06:18:44;;;;;;;18.17;2.58;;;;;;;;;;6347867;22;20054;-88
2022/10/21 06:21:10;;;;;;;27.15;3.60;;;;;;;;;;6346355;22;19995;-87
2022/10/21 06:23:37;;;;;;;16.67;2.97;;;;;;;;;;6347983;22;20065;-88
2022/10/21 06:26:05;;;;;;;16.58;2.55;;;;;;;;;;6337475;22;19995;-89
2022/10/21 06:28:32;;;;;;;17.77;2.80;;;;;;;;;;6335465;22;20000;-89
2022/10/21 06:30:59;;;;;;;17.75;2.70;;;;;;;;;;6308679;22;20333;-87
2022/10/21 06:33:25;;;;;;;21.20;3.17;;;;;;;;;;6307687;22;20086;-89
2022/10/21 06:35:51;;;;;;;26.48;3.03;;;;;;;;;;6335468;22;20240;-86
2022/10/21 06:38:17;;;;;;;21.27;2.72;;;;;;;;;;6335829;22;20010;-88
2022/10/21 06:40:43;;;;;;;23.27;2.95;;;;;;;;;;6308303;22;20496;-91
2022/10/21 06:43:12;;;;;;;22.73;2.88;;;;;;;;;;6312910;22;20057;-91
2022/10/21 06:45:39;;;;;;;24.63;3.60;;;;;;;;;;6316097;22;20033;-92
2022/10/21 06:48:05;;;;;;;28.23;3.13;;;;;;;;;;6310721;22;19999;-90
2022/10/21 06:50:32;;;;;;;27.77;3.55;;;;;;;;;;6314398;22;20002;-90
2022/10/21 06:52:58;;;;;;;28.25;3.72;;;;;;;;;;6314467;22;20010;-90
2022/10/21 06:55:25;;;;;;;26.33;3.28;;;;;;;;;;6315971;22;20006;-89
2022/10/21 06:57:52;;;;;;;24.13;3.20;;;;;;;;;;6316903;22;20010;-89
2022/10/21 07:00:18;;;;;;;20.20;3.15;;;;;;;;;;6342967;22;19999;-90
2022/10/21 07:02:44;;;;;;;28.63;3.50;;;;;;;;;;6341385;22;19999;-90
2022/10/21 07:05:11;;;;;;;34.50;3.45;;;;;;;;;;6340540;22;20052;-90
2022/10/21 07:07:37;;;;;;;30.53;3.63;;;;;;;;;;6309479;22;20003;-89
2022/10/21 07:10:04;;;;;;;28.25;3.63;;;;;;;;;;6333984;22;20092;-88
2022/10/21 07:12:30;;;;;;;30.90;4.03;;;;;;;;;;6304880;22;19999;-88
2022/10/21 07:14:56;;;;;;;31.70;3.95;;;;;;;;;;6333424;22;19998;-88
2022/10/21 07:17:22;;;;;;;33.00;4.43;;;;;;;;;;6333742;22;20658;-88
2022/10/21 07:19:48;;;;;;;30.80;3.92;;;;;;;;;;6334813;22;20407;-88
2022/10/21 07:22:17;;;;;;;33.75;4.88;;;;;;;;;;6310344;22;20007;-88
2022/10/21 07:24:44;;;;;;;35.25;4.72;;;;;;;;;;6313743;22;19999;-89
2022/10/21 07:27:16;;;;;;;31.58;4.25;;;;;;;;;;6319689;22;20003;-87
2022/10/21 07:29:46;;;;;;;36.70;4.35;;;;;;;;;;6333267;22;20079;-88
2022/10/21 07:32:13;;;;;;;33.65;4.88;;;;;;;;;;6332427;22;20374;-88
2022/10/21 07:34:39;;;;;;;35.70;4.70;;;;;;;;;;6333774;22;20006;-89
2022/10/21 07:37:05;;;;;;;38.60;4.95;;;;;;;;;;6333989;22;20011;-88
2022/10/21 07:39:33;;;;;;;31.95;4.35;;;;;;;;;;6335684;22;20434;-88
2022/10/21 07:41:59;;;;;;;46.38;5.72;;;;;;;;;;6333415;22;20028;-88
2022/10/21 07:44:25;;;;;;;42.30;4.82;;;;;;;;;;6334324;22;20696;-88
2022/10/21 07:46:52;;;;;;;37.88;4.60;;;;;;;;;;6334371;22;20003;-88
2022/10/21 07:49:19;;;;;;;49.08;5.38;;;;;;;;;;6305359;22;20010;-87
2022/10/21 07:51:45;;;;;;;43.75;5.53;;;;;;;;;;6333320;22;20003;-88
2022/10/21 07:54:12;;;;;;;43.70;5.22;;;;;;;;;;6334048;22;19995;-87
2022/10/21 07:56:40;;;;;;;41.25;6.07;;;;;;;;;;6334032;22;20077;-87
2022/10/21 07:59:07;;;;;;;40.22;5.28;;;;;;;;;;6334065;22;20009;-88
2022/10/21 08:01:35;;;;;;;41.25;5.38;;;;;;;;;;6334876;22;20128;-88
2022/10/21 08:04:01;;;;;;;37.35;6.07;;;;;;;;;;6306425;22;20392;-87
2022/10/21 08:06:27;;;;;;;40.78;5.10;;;;;;;;;;6306465;22;20011;-89
2022/10/21 08:08:57;;;;;;;37.80;4.68;;;;;;;;;;6333431;22;19998;-87
2022/10/21 08:11:24;;;;;;;37.10;5.18;;;;;;;;;;6307021;22;20052;-89
2022/10/21 08:13:51;;;;;;;38.78;5.78;;;;;;;;;;6305743;22;20408;-88
2022/10/21 08:16:17;;;;;;;40.67;5.32;;;;;;;;;;6306092;22;20462;-88
2022/10/21 08:18:43;;;;;;;33.92;4.97;;;;;;;;;;6333833;22;20454;-88
2022/10/21 08:21:09;;;;;;;39.03;4.55;;;;;;;;;;6306312;22;20003;-88
2022/10/21 08:23:35;;;;;;;39.35;4.97;;;;;;;;;;6334497;22;20006;-88
2022/10/21 08:26:01;;;;;;;35.33;4.93;;;;;;;;;;6334076;22;20430;-89
2022/10/21 08:28:28;;;;;;;38.70;4.93;;;;;;;;;;6332922;22;20230;-87
2022/10/21 08:31:02;;;;;;;41.45;4.47;;;;;;;;;;6332952;22;20438;-87
2022/10/21 08:33:28;;;;;;;34.38;4.95;;;;;;;;;;6333662;22;20222;-88
2022/10/21 08:35:54;;;;;;;35.50;5.25;;;;;;;;;;6305944;22;20010;-88
2022/10/21 08:38:20;;;;;;;43.42;5.40;;;;;;;;;;6333619;22;20098;-88
2022/10/21 08:40:48;;;;;;;35.20;5.57;;;;;;;;;;6333690;22;20377;-88
2022/10/21 08:43:20;;;;;;;46.83;5.40;;;;;;;;;;6332687;22;19998;-89
2022/10/21 08:45:58;;;;;;;37.65;4.78;;;;;;;;;;6305404;22;20013;-88
2022/10/21 08:48:29;;;;;;;33.78;5.50;;;;;;;;;;6305578;22;20077;-88
2022/10/21 08:50:55;;;;;;;45.22;6.18;;;;;;;;;;6305177;22;20346;-88
2022/10/21 08:53:24;;;;;;;44.08;5.82;;;;;;;;;;6333918;22;19995;-88
2022/10/21 08:55:52;;;;;;;45.10;5.57;;;;;;;;;;6333932;22;20005;-88
2022/10/21 08:58:18;;;;;;;;;;;;;;;;;;6306324;22;20400;-87
2022/10/21 09:00:49;;;;;;;54.78;6.38;;;;;;;;;;6305364;22;19922;-88
2022/10/21 09:03:18;;;;;;;42.00;4.55;;;;;;;;;;6334184;22;19999;-88
2022/10/21 09:05:44;;;;;;;48.45;5.72;;;;;;;;;;6333901;22;20074;-88
2022/10/21 09:08:17;;;;;;;48.80;6.47;;;;;;;;;;6339198;22;20025;-87
2022/10/21 09:10:43;;;;;;;46.47;5.82;;;;;;;;;;6315543;22;20003;-88
2022/10/21 09:13:12;;;;;;;43.50;5.18;;;;;;;;;;6345910;22;20006;-89
2022/10/21 09:15:49;;;;;;;49.20;6.03;;;;;;;;;;6338067;22;20120;-88
2022/10/21 09:18:33;;;;;;;46.15;5.55;;;;;;;;;;6333528;22;20090;-88
2022/10/21 09:21:18;;;;;;;48.30;5.47;;;;;;;;;;6334194;22;20003;-88
2022/10/21 09:24:03;;;;;;;47.00;5.82;;;;;;;;;;6333363;22;20430;-88
2022/10/21 09:26:32;;;;;;;41.90;5.22;;;;;;;;;;6333492;22;20003;-89
2022/10/21 09:29:00;;;;;;;40.33;4.82;;;;;;;;;;6305647;22;20409;-89
2022/10/21 09:31:28;;;;;;;38.03;4.88;;;;;;;;;;6305369;22;20090;-88
2022/10/21 09:33:57;;;;;;;30.98;4.57;;;;;;;;;;6333235;22;20373;-90
2022/10/21 09:36:26;;;;;;;36.58;5.13;;;;;;;;;;6331967;22;20002;-89
2022/10/21 09:38:55;;;;;;;43.72;5.53;;;;;;;;;;6329249;22;20015;-91
2022/10/21 09:41:23;;;;;;;37.85;5.18;;;;;;;;;;6305626;22;20003;-89
2022/10/21 09:43:50;;;;;;;37.05;5.35;;;;;;;;;;6334952;22;20418;-89
2022/10/21 09:46:22;;;;;;;43.10;5.43;;;;;;;;;;6309749;22;20002;-92
2022/10/21 09:48:50;;;;;;;38.00;6.03;;;;;;;;;;6309609;22;20082;-91
2022/10/21 09:51:23;;;;;;;36.55;5.57;;;;;;;;;;6336002;22;20005;-91
2022/10/21 09:53:57;;;;;;;38.33;4.88;;;;;;;;;;6308106;22;20007;-89
2022/10/21 09:56:27;;;;;;;42.20;5.47;;;;;;;;;;6306199;22;20127;-91
2022/10/21 09:59:10;;;;;;;41.95;6.60;;;;;;;;;;6337003;22;20013;-91
2022/10/21 10:01:38;;;;;;;39.83;4.82;;;;;;;;;;6341856;22;20380;-91
2022/10/21 10:04:10;;;;;;;35.50;4.80;;;;;;;;;;6314306;22;20048;-93
2022/10/21 10:06:38;;;;;;;37.63;4.45;;;;;;;;;;6342213;22;20003;-94
2022/10/21 10:09:27;;;;;;;34.85;4.75;;;;;;;;;;6339001;22;19999;-92
2022/10/21 10:11:55;;;;;;;40.50;5.53;;;;;;;;;;6323742;22;20046;-91
2022/10/21 10:14:31;;;;;;;36.38;4.68;;;;;;;;;;6337780;22;20331;-94
2022/10/21 10:16:58;;;;;;;39.55;5.13;;;;;;;;;;6338712;22;20481;-93
2022/10/21 10:19:28;;;;;;;28.33;4.67;;;;;;;;;;6340115;22;19999;-91
2022/10/21 10:22:11;;;;;;;35.03;5.15;;;;;;;;;;6343287;22;19999;-93
2022/10/21 10:24:39;;;;;;;31.90;5.03;;;;;;;;;;6339308;22;20003;-89
2022/10/21 10:27:19;;;;;;;29.52;4.15;;;;;;;;;;6336445;22;20013;-92
2022/10/21 10:29:49;;;;;;;33.67;4.57;;;;;;;;;;6336009;22;20002;-91
2022/10/21 10:32:15;;;;;;;39.08;5.40;;;;;;;;;;6332696;22;20002;-91
2022/10/21 10:35:07;;;;;;;29.17;5.13;;;;;;;;;;6336579;22;19998;-89
2022/10/21 10:37:34;;;;;;;34.58;4.20;;;;;;;;;;6281814;22;20022;-93
2022/10/21 10:40:02;;;;;;;29.58;3.63;;;;;;;;;;6308274;22;20349;-92
2022/10/21 10:42:32;;;;;;;28.50;5.03;;;;;;;;;;6305988;22;20007;-93
2022/10/21 10:45:00;;;;;;;30.23;4.45;;;;;;;;;;6336581;22;20009;-88
2022/10/21 10:47:42;;;;;;;29.77;3.72;;;;;;;;;;6306675;22;20006;-91
2022/10/21 10:50:28;;;;;;;21.40;3.60;;;;;;;;;;6305901;22;20007;-89
2022/10/21 10:53:13;;;;;;;28.92;4.20;;;;;;;;;;6314115;22;20032;-91
2022/10/21 10:55:42;;;;;;;32.80;3.58;;;;;;;;;;6308917;22;20010;-91
2022/10/21 10:58:09;;;;;;;26.88;3.67;;;;;;;;;;6308406;22;20397;-91
2022/10/21 11:00:40;;;;;;;31.67;3.70;;;;;;;;;;6334835;22;20472;-89
2022/10/21 11:03:10;;;;;;;26.10;4.32;;;;;;;;;;6335048;22;20055;-89
2022/10/21 11:05:39;;;;;;;32.17;3.72;;;;;;;;;;6335908;22;19995;-90
2022/10/21 11:08:23;;;;;;;25.92;4.18;;;;;;;;;;6334050;22;20055;-89
2022/10/21 11:10:52;;;;;;;26.05;3.75;;;;;;;;;;6306747;22;20003;-94
2022/10/21 11:13:19;;;;;;;24.90;3.30;;;;;;;;;;6333837;22;20048;-89
2022/10/21 11:15:54;;;;;;;27.17;3.88;;;;;;;;;;6334391;22;20441;-88
2022/10/21 11:18:23;;;;;;;22.48;3.53;;;;;;;;;;6333938;22;20010;-92
2022/10/21 11:21:16;;;;;;;19.70;3.13;;;;;;;;;;6334898;22;19999;-90
2022/10/21 11:23:42;;;;;;;23.58;4.47;;;;;;;;;;6330267;22;20006;-90
2022/10/21 11:26:27;;;;;;;21.77;3.45;;;;;;;;;;6306766;22;20003;-89
2022/10/21 11:29:02;;;;;;;27.50;3.35;;;;;;;;;;6306799;22;20007;-89
2022/10/21 11:31:34;;;;;;;15.77;2.72;;;;;;;;;;6305779;22;20014;-89
2022/10/21 11:34:03;;;;;;;21.75;3.10;;;;;;;;;;6306637;22;20003;-91
2022/10/21 11:36:37;;;;;;;25.17;3.53;;;;;;;;;;6306551;22;20003;-91
2022/10/21 11:39:23;;;;;;;25.80;3.20;;;;;;;;;;6334480;22;20034;-90
2022/10/21 11:41:53;;;;;;;21.35;3.28;;;;;;;;;;6270516;22;20021;-89
2022/10/21 11:44:32;;;;;;;16.63;3.28;;;;;;;;;;6333603;22;20055;-90
2022/10/21 11:47:04;;;;;;;21.00;3.17;;;;;;;;;;6333873;22;20324;-90
2022/10/21 11:49:42;;;;;;;19.55;3.13;;;;;;;;;;6306308;22;20002;-89
2022/10/21 11:52:08;;;;;;;;;;;;;;;;;;6334638;22;19999;-91
2022/10/21 11:54:52;;;;;;;25.58;3.97;;;;;;;;;;6305819;22;19910;-88
2022/10/21 11:57:25;;;;;;;30.67;3.72;;;;;;;;;;6336804;22;20007;-89
2022/10/21 11:59:55;;;;;;;23.02;3.20;;;;;;;;;;6324530;22;20009;-90
2022/10/21 12:02:39;;;;;;;21.48;3.55;;;;;;;;;;6348427;22;20005;-88
2022/10/21 12:05:06;;;;;;;19.98;3.13;;;;;;;;;;6355357;22;20466;-89
2022/10/21 12:07:41;;;;;;;19.10;2.95;;;;;;;;;;6311155;22;20002;-92
2022/10/21 12:10:36;;;;;;;22.70;3.00;;;;;;;;;;6309494;22;20045;-93
2022/10/21 12:13:14;;;;;;;17.20;2.95;;;;;;;;;;6223964;22;20337;-90
2022/10/21 12:15:47;;;;;;;21.08;3.22;;;;;;;;;;6333731;22;19994;-91
2022/10/21 12:18:18;;;;;;;22.73;3.15;;;;;;;;;;6334077;22;20011;-88
2022/10/21 12:20:46;;;;;;;19.00;2.85;;;;;;;;;;6307323;22;20007;-90
2022/10/21 12:23:15;;;;;;;20.52;3.35;;;;;;;;;;6334680;22;20056;-90
2022/10/21 12:26:03;;;;;;;20.83;2.63;;;;;;;;;;6335321;22;20002;-89
2022/10/21 12:28:36;;;;;;;17.63;2.78;;;;;;;;;;6306832;22;20049;-90
2022/10/21 12:31:02;;;;;;;21.10;3.50;;;;;;;;;;6333800;22;19999;-90
2022/10/21 12:33:40;;;;;;;23.08;3.03;;;;;;;;;;6305946;22;20038;-92
2022/10/21 12:36:17;;;;;;;21.13;2.78;;;;;;;;;;6334150;22;20242;-90
2022/10/21 12:38:45;;;;;;;17.07;3.00;;;;;;;;;;6334969;22;20088;-90
2022/10/21 12:41:25;;;;;;;25.95;3.28;;;;;;;;;;6333888;22;20070;-85
2022/10/21 12:44:11;;;;;;;17.02;3.17;;;;;;;;;;6332854;22;19999;-91
2022/10/21 12:53:55;;;;;;;19.88;2.65;;;;;;;;;;6229809;22;20008;-93
2022/10/21 13:02:24;;;;;;;15.52;2.53;;;;;;;;;;6314162;22;20339;-92
2022/10/21 13:04:52;;;;;;;26.17;2.78;;;;;;;;;;6307823;22;20003;-90
2022/10/21 13:07:18;;;;;;;19.70;2.92;;;;;;;;;;6306525;22;20011;-93
2022/10/21 13:09:50;;;;;;;21.27;3.30;;;;;;;;;;6307756;22;20370;-91
2022/10/21 13:12:25;;;;;;;16.98;2.55;;;;;;;;;;6306135;22;20007;-89
2022/10/21 13:14:56;;;;;;;21.55;2.90;;;;;;;;;;6305102;22;20005;-91
2022/10/21 13:17:22;;;;;;;14.70;2.45;;;;;;;;;;6305462;22;20376;-89
2022/10/21 13:19:51;;;;;;;21.50;2.80;;;;;;;;;;6333276;22;20549;-91
2022/10/21 13:22:34;;;;;;;24.70;4.10;;;;;;;;;;6307028;22;20568;-89
2022/10/21 13:25:17;;;;;;;15.15;3.15;;;;;;;;;;6333595;22;20003;-89
2022/10/21 13:27:47;;;;;;;24.92;3.20;;;;;;;;;;6305981;22;19994;-91
2022/10/21 13:30:48;;;;;;;17.05;2.33;;;;;;;;;;6334889;22;20002;-91
2022/10/21 13:33:18;;;;;;;21.92;2.50;;;;;;;;;;6259057;22;20002;-91
2022/10/21 13:36:05;;;;;;;14.82;2.55;;;;;;;;;;6307923;22;20007;-93
2022/10/21 13:38:35;;;;;;;11.50;2.47;;;;;;;;;;6306714;22;20045;-91
2022/10/21 13:41:03;;;;;;;20.95;2.38;;;;;;;;;;6306459;22;19998;-91
2022/10/21 13:43:37;;;;;;;24.15;2.80;;;;;;;;;;6305804;22;20007;-90
2022/10/21 13:46:06;;;;;;;19.10;2.38;;;;;;;;;;6332365;22;19995;-91
2022/10/21 13:48:39;;;;;;;13.63;2.80;;;;;;;;;;6331747;22;20060;-93
2022/10/21 13:51:14;;;;;;;19.73;3.35;;;;;;;;;;6305830;22;20060;-90
2022/10/21 13:53:44;;;;;;;17.17;2.85;;;;;;;;;;6305862;22;19998;-93
2022/10/21 13:56:21;;;;;;;24.77;3.30;;;;;;;;;;6305768;22;20010;-91
2022/10/21 13:58:47;;;;;;;11.43;2.08;;;;;;;;;;6306211;22;20015;-91
2022/10/21 14:01:24;;;;;;;17.63;2.42;;;;;;;;;;6333858;22;19995;-93
2022/10/21 14:03:51;;;;;;;15.93;2.63;;;;;;;;;;6304452;22;20044;-91
2022/10/21 14:06:30;;;;;;;18.23;2.63;;;;;;;;;;6305293;22;20010;-92
2022/10/21 14:11:47;;;;;;;14.38;2.13;;;;;;;;;;6271042;22;20108;-92
2022/10/21 14:14:15;;;;;;;19.40;2.78;;;;;;;;;;6305990;22;20006;-93
2022/10/21 14:16:49;;;;;;;15.48;2.63;;;;;;;;;;6333805;22;19995;-92
2022/10/21 14:19:37;;;;;;;19.30;3.40;;;;;;;;;;6307349;22;20082;-93
2022/10/21 14:22:05;;;;;;;15.35;2.70;;;;;;;;;;6333763;22;20023;-91
2022/10/21 14:24:38;;;;;;;15.52;2.40;;;;;;;;;;6306009;22;20019;-92
2022/10/21 14:27:25;;;;;;;12.70;2.13;;;;;;;;;;6307824;22;20473;-93
2022/10/21 14:29:51;;;;;;;18.33;2.38;;;;;;;;;;6335307;22;19998;-91
2022/10/21 14:32:38;;;;;;;16.98;2.47;;;;;;;;;;6308251;22;20435;-92
2022/10/21 14:35:17;;;;;;;18.50;2.45;;;;;;;;;;6215923;22;20008;-91
2022/10/21 14:37:48;;;;;;;26.70;4.28;;;;;;;;;;6307075;22;20014;-91
2022/10/21 14:40:34;;;;;;;12.63;2.50;;;;;;;;;;6307939;22;20034;-92
2022/10/21 14:43:04;;;;;;;19.17;3.58;;;;;;;;;;6308543;22;20037;-90
2022/10/21 14:45:50;;;;;;;8.43;2.20;;;;;;;;;;6306823;22;20026;-91
2022/10/21 14:48:19;;;;;;;12.43;2.10;;;;;;;;;;6307316;22;20254;-91
2022/10/21 14:50:58;;;;;;;10.23;2.17;;;;;;;;;;6335087;22;19998;-91
2022/10/21 14:53:25;;;;;;;17.15;2.95;;;;;;;;;;6334432;22;20049;-91
2022/10/21 14:55:55;;;;;;;14.13;2.40;;;;;;;;;;6335668;22;20067;-91
2022/10/21 14:58:28;;;;;;;15.75;2.35;;;;;;;;;;6307503;22;20024;-92
2022/10/21 15:00:57;;;;;;;7.05;2.65;;;;;;;;;;6307970;22;20465;-90
2022/10/21 15:03:42;;;;;;;17.83;2.67;;;;;;;;;;6307864;22;20025;-90